sensor_id;sensor_type;location;lat;lon;timestamp;temperature;humidity
21108;DHT22;10712;52.944;9.098;2023-04-19T00:00:40;6.80;70.20
21108;DHT22;10712;52.944;9.098;2023-04-19T00:03:08;6.70;70.40
21108;DHT22;10712;52.944;9.098;2023-04-19T00:05:35;6.60;70.40
21108;DHT22;10712;52.944;9.098;2023-04-19T00:08:03;6.60;70.20
21108;DHT22;10712;52.944;9.098;2023-04-19T00:10:30;6.50;70.00
21108;DHT22;10712;52.944;9.098;2023-04-19T00:12:56;6.40;70.00
21108;DHT22;10712;52.944;9.098;2023-04-19T00:15:22;6.40;70.00
21108;DHT22;10712;52.944;9.098;2023-04-19T00:17:47;6.30;70.20
21108;DHT22;10712;52.944;9.098;2023-04-19T00:20:13;6.20;70.20
21108;DHT22;10712;52.944;9.098;2023-04-19T00:22:39;6.20;70.20
21108;DHT22;10712;52.944;9.098;2023-04-19T00:25:05;6.20;70.10
21108;DHT22;10712;52.944;9.098;2023-04-19T00:27:32;6.10;70.30
21108;DHT22;10712;52.944;9.098;2023-04-19T00:29:58;6.10;70.10
21108;DHT22;10712;52.944;9.098;2023-04-19T00:32:25;6.00;70.30
21108;DHT22;10712;52.944;9.098;2023-04-19T00:34:51;6.00;70.60
21108;DHT22;10712;52.944;9.098;2023-04-19T00:37:17;5.90;70.30
21108;DHT22;10712;52.944;9.098;2023-04-19T00:39:42;5.90;70.60
21108;DHT22;10712;52.944;9.098;2023-04-19T00:42:08;5.80;70.60
21108;DHT22;10712;52.944;9.098;2023-04-19T00:44:34;5.80;70.80
21108;DHT22;10712;52.944;9.098;2023-04-19T00:47:00;5.70;71.10
21108;DHT22;10712;52.944;9.098;2023-04-19T00:49:26;5.60;71.30
21108;DHT22;10712;52.944;9.098;2023-04-19T00:51:53;5.60;71.40
21108;DHT22;10712;52.944;9.098;2023-04-19T00:54:19;5.50;71.70
21108;DHT22;10712;52.944;9.098;2023-04-19T00:56:48;5.50;71.70
21108;DHT22;10712;52.944;9.098;2023-04-19T00:59:15;5.40;72.10
21108;DHT22;10712;52.944;9.098;2023-04-19T01:01:41;5.40;72.30
21108;DHT22;10712;52.944;9.098;2023-04-19T01:04:08;5.40;72.40
21108;DHT22;10712;52.944;9.098;2023-04-19T01:06:35;5.30;72.50
21108;DHT22;10712;52.944;9.098;2023-04-19T01:09:01;5.30;72.60
21108;DHT22;10712;52.944;9.098;2023-04-19T01:11:27;5.30;72.60
21108;DHT22;10712;52.944;9.098;2023-04-19T01:13:56;5.30;72.80
21108;DHT22;10712;52.944;9.098;2023-04-19T01:16:26;5.20;72.70
21108;DHT22;10712;52.944;9.098;2023-04-19T01:18:53;5.20;72.70
21108;DHT22;10712;52.944;9.098;2023-04-19T01:21:19;5.20;72.80
21108;DHT22;10712;52.944;9.098;2023-04-19T01:23:47;5.10;73.00
21108;DHT22;10712;52.944;9.098;2023-04-19T01:26:14;5.10;73.10
21108;DHT22;10712;52.944;9.098;2023-04-19T01:28:40;5.00;73.20
21108;DHT22;10712;52.944;9.098;2023-04-19T01:31:08;5.00;73.30
21108;DHT22;10712;52.944;9.098;2023-04-19T01:33:35;4.90;73.50
21108;DHT22;10712;52.944;9.098;2023-04-19T01:36:01;4.90;73.70
21108;DHT22;10712;52.944;9.098;2023-04-19T01:38:27;4.80;73.80
21108;DHT22;10712;52.944;9.098;2023-04-19T01:40:53;4.80;73.80
21108;DHT22;10712;52.944;9.098;2023-04-19T01:43:23;4.80;73.80
21108;DHT22;10712;52.944;9.098;2023-04-19T01:45:49;4.70;74.10
21108;DHT22;10712;52.944;9.098;2023-04-19T01:48:14;4.70;74.30
21108;DHT22;10712;52.944;9.098;2023-04-19T01:50:40;4.70;74.30
21108;DHT22;10712;52.944;9.098;2023-04-19T01:53:06;4.80;74.30
21108;DHT22;10712;52.944;9.098;2023-04-19T01:55:32;4.80;74.00
21108;DHT22;10712;52.944;9.098;2023-04-19T01:57:57;4.80;74.00
21108;DHT22;10712;52.944;9.098;2023-04-19T02:00:23;4.70;73.90
21108;DHT22;10712;52.944;9.098;2023-04-19T02:02:49;4.70;74.10
21108;DHT22;10712;52.944;9.098;2023-04-19T02:05:15;4.60;74.40
21108;DHT22;10712;52.944;9.098;2023-04-19T02:07:40;4.60;74.60
21108;DHT22;10712;52.944;9.098;2023-04-19T02:10:09;4.60;74.90
21108;DHT22;10712;52.944;9.098;2023-04-19T02:12:36;4.60;74.80
21108;DHT22;10712;52.944;9.098;2023-04-19T02:15:03;4.50;75.00
21108;DHT22;10712;52.944;9.098;2023-04-19T02:17:29;4.50;75.30
21108;DHT22;10712;52.944;9.098;2023-04-19T02:19:57;4.50;75.50
21108;DHT22;10712;52.944;9.098;2023-04-19T02:22:22;4.50;75.70
21108;DHT22;10712;52.944;9.098;2023-04-19T02:24:49;4.40;75.70
21108;DHT22;10712;52.944;9.098;2023-04-19T02:27:15;4.40;76.00
21108;DHT22;10712;52.944;9.098;2023-04-19T02:29:42;4.40;76.20
21108;DHT22;10712;52.944;9.098;2023-04-19T02:32:07;4.40;76.60
21108;DHT22;10712;52.944;9.098;2023-04-19T02:34:34;4.40;76.80
21108;DHT22;10712;52.944;9.098;2023-04-19T02:37:01;4.40;76.90
21108;DHT22;10712;52.944;9.098;2023-04-19T02:39:27;4.40;76.80
21108;DHT22;10712;52.944;9.098;2023-04-19T02:41:54;4.40;76.80
21108;DHT22;10712;52.944;9.098;2023-04-19T02:44:20;4.40;76.90
21108;DHT22;10712;52.944;9.098;2023-04-19T02:46:50;4.40;77.00
21108;DHT22;10712;52.944;9.098;2023-04-19T02:49:17;4.40;77.20
21108;DHT22;10712;52.944;9.098;2023-04-19T02:51:44;4.40;77.50
21108;DHT22;10712;52.944;9.098;2023-04-19T02:54:11;4.40;77.50
21108;DHT22;10712;52.944;9.098;2023-04-19T02:56:39;4.40;77.40
21108;DHT22;10712;52.944;9.098;2023-04-19T02:59:05;4.40;77.40
21108;DHT22;10712;52.944;9.098;2023-04-19T03:01:32;4.40;77.30
21108;DHT22;10712;52.944;9.098;2023-04-19T03:04:00;4.40;77.40
21108;DHT22;10712;52.944;9.098;2023-04-19T03:06:26;4.40;77.20
21108;DHT22;10712;52.944;9.098;2023-04-19T03:08:52;4.40;77.00
21108;DHT22;10712;52.944;9.098;2023-04-19T03:11:18;4.30;77.10
21108;DHT22;10712;52.944;9.098;2023-04-19T03:13:45;4.20;77.30
21108;DHT22;10712;52.944;9.098;2023-04-19T03:16:12;4.10;77.50
21108;DHT22;10712;52.944;9.098;2023-04-19T03:18:39;4.10;77.60
21108;DHT22;10712;52.944;9.098;2023-04-19T03:21:05;4.00;77.80
21108;DHT22;10712;52.944;9.098;2023-04-19T03:23:43;3.90;78.00
21108;DHT22;10712;52.944;9.098;2023-04-19T03:26:09;3.90;78.20
21108;DHT22;10712;52.944;9.098;2023-04-19T03:28:44;3.90;78.50
21108;DHT22;10712;52.944;9.098;2023-04-19T03:31:30;3.80;78.50
21108;DHT22;10712;52.944;9.098;2023-04-19T03:33:57;3.80;78.60
21108;DHT22;10712;52.944;9.098;2023-04-19T03:36:28;3.80;78.70
21108;DHT22;10712;52.944;9.098;2023-04-19T03:38:55;3.70;79.10
21108;DHT22;10712;52.944;9.098;2023-04-19T03:41:24;3.70;79.20
21108;DHT22;10712;52.944;9.098;2023-04-19T03:44:02;3.70;79.00
21108;DHT22;10712;52.944;9.098;2023-04-19T03:46:28;3.70;79.10
21108;DHT22;10712;52.944;9.098;2023-04-19T03:48:57;3.60;79.10
21108;DHT22;10712;52.944;9.098;2023-04-19T03:51:24;3.60;79.30
21108;DHT22;10712;52.944;9.098;2023-04-19T03:53:49;3.60;79.30
21108;DHT22;10712;52.944;9.098;2023-04-19T03:56:17;3.60;79.30
21108;DHT22;10712;52.944;9.098;2023-04-19T03:58:43;3.60;79.20
21108;DHT22;10712;52.944;9.098;2023-04-19T04:01:17;3.50;79.30
21108;DHT22;10712;52.944;9.098;2023-04-19T04:03:44;3.50;79.20
21108;DHT22;10712;52.944;9.098;2023-04-19T04:06:10;3.50;79.30
21108;DHT22;10712;52.944;9.098;2023-04-19T04:08:36;3.50;79.30
21108;DHT22;10712;52.944;9.098;2023-04-19T04:11:02;3.50;79.40
21108;DHT22;10712;52.944;9.098;2023-04-19T04:13:29;3.40;79.40
21108;DHT22;10712;52.944;9.098;2023-04-19T04:16:07;3.40;79.40
21108;DHT22;10712;52.944;9.098;2023-04-19T04:18:33;3.40;79.50
21108;DHT22;10712;52.944;9.098;2023-04-19T04:21:00;3.40;79.70
21108;DHT22;10712;52.944;9.098;2023-04-19T04:23:27;3.30;79.80
21108;DHT22;10712;52.944;9.098;2023-04-19T04:25:59;3.30;79.70
21108;DHT22;10712;52.944;9.098;2023-04-19T04:28:34;3.30;79.90
21108;DHT22;10712;52.944;9.098;2023-04-19T04:31:01;3.20;80.00
21108;DHT22;10712;52.944;9.098;2023-04-19T04:33:30;3.20;80.20
21108;DHT22;10712;52.944;9.098;2023-04-19T04:35:56;3.20;80.20
21108;DHT22;10712;52.944;9.098;2023-04-19T04:38:25;3.20;80.40
21108;DHT22;10712;52.944;9.098;2023-04-19T04:40:53;3.20;80.50
21108;DHT22;10712;52.944;9.098;2023-04-19T04:43:24;3.20;80.60
21108;DHT22;10712;52.944;9.098;2023-04-19T04:45:54;3.30;80.60
21108;DHT22;10712;52.944;9.098;2023-04-19T04:48:23;3.30;80.30
21108;DHT22;10712;52.944;9.098;2023-04-19T04:50:49;3.20;80.50
21108;DHT22;10712;52.944;9.098;2023-04-19T04:53:15;3.20;80.50
21108;DHT22;10712;52.944;9.098;2023-04-19T04:55:43;3.20;80.60
21108;DHT22;10712;52.944;9.098;2023-04-19T04:58:11;3.20;80.80
21108;DHT22;10712;52.944;9.098;2023-04-19T05:00:57;3.20;80.80
21108;DHT22;10712;52.944;9.098;2023-04-19T05:03:24;3.20;81.00
21108;DHT22;10712;52.944;9.098;2023-04-19T05:05:55;3.20;80.80
21108;DHT22;10712;52.944;9.098;2023-04-19T05:08:24;3.20;80.80
21108;DHT22;10712;52.944;9.098;2023-04-19T05:10:52;3.20;80.80
21108;DHT22;10712;52.944;9.098;2023-04-19T05:13:21;3.20;80.70
21108;DHT22;10712;52.944;9.098;2023-04-19T05:15:48;3.20;80.70
21108;DHT22;10712;52.944;9.098;2023-04-19T05:18:14;3.20;80.80
21108;DHT22;10712;52.944;9.098;2023-04-19T05:20:41;3.20;80.90
21108;DHT22;10712;52.944;9.098;2023-04-19T05:23:16;3.20;81.10
21108;DHT22;10712;52.944;9.098;2023-04-19T05:25:43;3.30;81.30
21108;DHT22;10712;52.944;9.098;2023-04-19T05:28:09;3.30;81.20
21108;DHT22;10712;52.944;9.098;2023-04-19T05:30:55;3.30;81.10
21108;DHT22;10712;52.944;9.098;2023-04-19T05:33:23;3.30;81.30
21108;DHT22;10712;52.944;9.098;2023-04-19T05:35:52;3.30;81.40
21108;DHT22;10712;52.944;9.098;2023-04-19T05:38:18;3.40;81.60
21108;DHT22;10712;52.944;9.098;2023-04-19T05:40:44;3.40;81.70
21108;DHT22;10712;52.944;9.098;2023-04-19T05:43:12;3.40;81.80
21108;DHT22;10712;52.944;9.098;2023-04-19T05:45:38;3.50;81.90
21108;DHT22;10712;52.944;9.098;2023-04-19T05:48:05;3.50;81.90
21108;DHT22;10712;52.944;9.098;2023-04-19T05:50:57;3.60;81.90
21108;DHT22;10712;52.944;9.098;2023-04-19T05:53:34;3.70;82.00
21108;DHT22;10712;52.944;9.098;2023-04-19T05:55:59;3.80;81.90
21108;DHT22;10712;52.944;9.098;2023-04-19T05:58:25;3.90;81.90
21108;DHT22;10712;52.944;9.098;2023-04-19T06:00:51;3.90;81.60
21108;DHT22;10712;52.944;9.098;2023-04-19T06:03:19;4.00;81.50
21108;DHT22;10712;52.944;9.098;2023-04-19T06:05:45;4.10;81.60
21108;DHT22;10712;52.944;9.098;2023-04-19T06:08:11;4.20;81.70
21108;DHT22;10712;52.944;9.098;2023-04-19T06:10:36;4.30;81.60
21108;DHT22;10712;52.944;9.098;2023-04-19T06:13:02;4.40;81.60
21108;DHT22;10712;52.944;9.098;2023-04-19T06:15:29;4.40;81.40
21108;DHT22;10712;52.944;9.098;2023-04-19T06:17:55;4.50;81.20
21108;DHT22;10712;52.944;9.098;2023-04-19T06:20:21;4.60;80.90
21108;DHT22;10712;52.944;9.098;2023-04-19T06:22:47;4.70;80.70
21108;DHT22;10712;52.944;9.098;2023-04-19T06:25:13;4.80;80.80
21108;DHT22;10712;52.944;9.098;2023-04-19T06:27:39;4.80;80.30
21108;DHT22;10712;52.944;9.098;2023-04-19T06:30:05;4.90;80.40
21108;DHT22;10712;52.944;9.098;2023-04-19T06:32:32;5.00;80.20
21108;DHT22;10712;52.944;9.098;2023-04-19T06:34:58;5.10;80.20
21108;DHT22;10712;52.944;9.098;2023-04-19T06:37:23;5.20;80.10
21108;DHT22;10712;52.944;9.098;2023-04-19T06:39:49;5.40;80.10
21108;DHT22;10712;52.944;9.098;2023-04-19T06:42:15;5.50;79.80
21108;DHT22;10712;52.944;9.098;2023-04-19T06:44:44;5.60;79.80
21108;DHT22;10712;52.944;9.098;2023-04-19T06:47:09;5.70;79.60
21108;DHT22;10712;52.944;9.098;2023-04-19T06:49:35;5.90;79.40
21108;DHT22;10712;52.944;9.098;2023-04-19T06:52:01;6.00;79.40
21108;DHT22;10712;52.944;9.098;2023-04-19T06:54:27;6.20;78.90
21108;DHT22;10712;52.944;9.098;2023-04-19T06:56:53;6.30;77.00
21108;DHT22;10712;52.944;9.098;2023-04-19T06:59:19;6.40;76.70
21108;DHT22;10712;52.944;9.098;2023-04-19T07:01:45;6.50;76.90
21108;DHT22;10712;52.944;9.098;2023-04-19T07:04:12;6.50;77.80
21108;DHT22;10712;52.944;9.098;2023-04-19T07:06:38;6.60;77.60
21108;DHT22;10712;52.944;9.098;2023-04-19T07:09:05;6.70;77.50
21108;DHT22;10712;52.944;9.098;2023-04-19T07:11:32;6.80;77.20
21108;DHT22;10712;52.944;9.098;2023-04-19T07:13:58;7.00;77.70
21108;DHT22;10712;52.944;9.098;2023-04-19T07:16:27;7.20;77.70
21108;DHT22;10712;52.944;9.098;2023-04-19T07:18:53;7.40;77.80
21108;DHT22;10712;52.944;9.098;2023-04-19T07:21:19;7.60;77.40
21108;DHT22;10712;52.944;9.098;2023-04-19T07:23:44;7.80;76.70
21108;DHT22;10712;52.944;9.098;2023-04-19T07:26:10;7.90;75.00
21108;DHT22;10712;52.944;9.098;2023-04-19T07:28:38;8.10;74.30
21108;DHT22;10712;52.944;9.098;2023-04-19T07:31:04;8.20;74.40
21108;DHT22;10712;52.944;9.098;2023-04-19T07:33:30;8.40;72.90
21108;DHT22;10712;52.944;9.098;2023-04-19T07:35:56;8.50;71.80
21108;DHT22;10712;52.944;9.098;2023-04-19T07:38:22;8.60;71.80
21108;DHT22;10712;52.944;9.098;2023-04-19T07:40:49;8.80;71.50
21108;DHT22;10712;52.944;9.098;2023-04-19T07:43:15;8.90;70.80
21108;DHT22;10712;52.944;9.098;2023-04-19T07:45:41;9.00;70.60
21108;DHT22;10712;52.944;9.098;2023-04-19T07:48:07;9.10;70.60
21108;DHT22;10712;52.944;9.098;2023-04-19T07:50:33;9.20;69.50
21108;DHT22;10712;52.944;9.098;2023-04-19T07:52:58;9.30;68.10
21108;DHT22;10712;52.944;9.098;2023-04-19T07:55:24;9.30;66.20
21108;DHT22;10712;52.944;9.098;2023-04-19T07:57:50;9.40;67.30
21108;DHT22;10712;52.944;9.098;2023-04-19T08:00:16;9.50;67.00
21108;DHT22;10712;52.944;9.098;2023-04-19T08:02:46;9.60;66.00
21108;DHT22;10712;52.944;9.098;2023-04-19T08:05:16;9.60;66.60
21108;DHT22;10712;52.944;9.098;2023-04-19T08:07:42;9.70;67.10
21108;DHT22;10712;52.944;9.098;2023-04-19T08:10:09;9.80;64.90
21108;DHT22;10712;52.944;9.098;2023-04-19T08:12:36;9.90;65.60
21108;DHT22;10712;52.944;9.098;2023-04-19T08:15:05;10.00;65.70
21108;DHT22;10712;52.944;9.098;2023-04-19T08:17:33;10.00;66.00
21108;DHT22;10712;52.944;9.098;2023-04-19T08:19:59;10.10;64.80
21108;DHT22;10712;52.944;9.098;2023-04-19T08:22:25;10.20;64.50
21108;DHT22;10712;52.944;9.098;2023-04-19T08:24:52;10.30;63.80
21108;DHT22;10712;52.944;9.098;2023-04-19T08:27:18;10.40;64.50
21108;DHT22;10712;52.944;9.098;2023-04-19T08:29:45;10.50;64.10
21108;DHT22;10712;52.944;9.098;2023-04-19T08:32:12;10.50;64.20
21108;DHT22;10712;52.944;9.098;2023-04-19T08:34:38;10.60;61.50
21108;DHT22;10712;52.944;9.098;2023-04-19T08:37:05;10.70;62.40
21108;DHT22;10712;52.944;9.098;2023-04-19T08:39:34;10.80;61.40
21108;DHT22;10712;52.944;9.098;2023-04-19T08:42:05;10.90;61.20
21108;DHT22;10712;52.944;9.098;2023-04-19T08:44:33;11.00;59.00
21108;DHT22;10712;52.944;9.098;2023-04-19T08:46:59;11.10;58.70
21108;DHT22;10712;52.944;9.098;2023-04-19T08:49:27;11.20;56.10
21108;DHT22;10712;52.944;9.098;2023-04-19T08:51:54;11.20;57.10
21108;DHT22;10712;52.944;9.098;2023-04-19T08:54:22;11.30;56.10
21108;DHT22;10712;52.944;9.098;2023-04-19T08:56:49;11.40;56.00
21108;DHT22;10712;52.944;9.098;2023-04-19T08:59:14;11.50;56.60
21108;DHT22;10712;52.944;9.098;2023-04-19T09:01:40;11.60;55.20
21108;DHT22;10712;52.944;9.098;2023-04-19T09:04:06;11.60;53.90
21108;DHT22;10712;52.944;9.098;2023-04-19T09:06:36;11.70;54.30
21108;DHT22;10712;52.944;9.098;2023-04-19T09:09:17;11.70;53.70
21108;DHT22;10712;52.944;9.098;2023-04-19T09:11:43;11.80;52.70
21108;DHT22;10712;52.944;9.098;2023-04-19T09:14:10;11.90;53.60
21108;DHT22;10712;52.944;9.098;2023-04-19T09:16:37;11.90;53.40
21108;DHT22;10712;52.944;9.098;2023-04-19T09:19:04;12.00;54.00
21108;DHT22;10712;52.944;9.098;2023-04-19T09:21:31;12.00;54.20
21108;DHT22;10712;52.944;9.098;2023-04-19T09:23:59;12.10;53.90
21108;DHT22;10712;52.944;9.098;2023-04-19T09:26:25;12.20;53.90
21108;DHT22;10712;52.944;9.098;2023-04-19T09:29:06;12.30;53.90
21108;DHT22;10712;52.944;9.098;2023-04-19T09:31:34;12.30;54.90
21108;DHT22;10712;52.944;9.098;2023-04-19T09:34:16;12.40;54.80
21108;DHT22;10712;52.944;9.098;2023-04-19T09:36:43;12.50;53.00
21108;DHT22;10712;52.944;9.098;2023-04-19T09:39:09;12.50;52.90
21108;DHT22;10712;52.944;9.098;2023-04-19T09:41:52;12.50;51.70
21108;DHT22;10712;52.944;9.098;2023-04-19T09:44:19;12.60;52.70
21108;DHT22;10712;52.944;9.098;2023-04-19T09:46:45;12.60;53.10
21108;DHT22;10712;52.944;9.098;2023-04-19T09:51:55;12.70;51.10
21108;DHT22;10712;52.944;9.098;2023-04-19T09:54:23;12.80;51.80
21108;DHT22;10712;52.944;9.098;2023-04-19T09:56:50;12.90;51.30
21108;DHT22;10712;52.944;9.098;2023-04-19T09:59:17;12.90;50.40
21108;DHT22;10712;52.944;9.098;2023-04-19T10:02:01;13.00;52.30
21108;DHT22;10712;52.944;9.098;2023-04-19T10:04:31;13.00;50.90
21108;DHT22;10712;52.944;9.098;2023-04-19T10:06:57;13.10;50.60
21108;DHT22;10712;52.944;9.098;2023-04-19T10:09:23;13.20;51.20
21108;DHT22;10712;52.944;9.098;2023-04-19T10:11:52;13.20;51.10
21108;DHT22;10712;52.944;9.098;2023-04-19T10:14:22;13.30;49.70
21108;DHT22;10712;52.944;9.098;2023-04-19T10:16:49;13.40;50.80
21108;DHT22;10712;52.944;9.098;2023-04-19T10:19:17;13.40;48.60
21108;DHT22;10712;52.944;9.098;2023-04-19T10:21:47;13.40;48.90
21108;DHT22;10712;52.944;9.098;2023-04-19T10:24:14;13.40;49.50
21108;DHT22;10712;52.944;9.098;2023-04-19T10:32:22;13.70;48.00
21108;DHT22;10712;52.944;9.098;2023-04-19T10:34:52;13.70;47.80
21108;DHT22;10712;52.944;9.098;2023-04-19T10:37:22;13.60;48.60
21108;DHT22;10712;52.944;9.098;2023-04-19T10:39:50;13.60;47.50
21108;DHT22;10712;52.944;9.098;2023-04-19T10:42:17;13.70;49.70
21108;DHT22;10712;52.944;9.098;2023-04-19T10:47:58;13.70;47.50
21108;DHT22;10712;52.944;9.098;2023-04-19T10:50:24;13.70;46.90
21108;DHT22;10712;52.944;9.098;2023-04-19T10:52:50;13.80;47.20
21108;DHT22;10712;52.944;9.098;2023-04-19T10:55:18;13.80;47.50
21108;DHT22;10712;52.944;9.098;2023-04-19T10:58:00;13.80;47.70
21108;DHT22;10712;52.944;9.098;2023-04-19T11:00:28;13.80;47.00
21108;DHT22;10712;52.944;9.098;2023-04-19T11:03:00;13.80;47.50
21108;DHT22;10712;52.944;9.098;2023-04-19T11:06:18;13.90;47.60
21108;DHT22;10712;52.944;9.098;2023-04-19T11:08:45;13.90;48.70
21108;DHT22;10712;52.944;9.098;2023-04-19T11:11:12;13.90;46.50
21108;DHT22;10712;52.944;9.098;2023-04-19T11:13:41;13.90;49.00
21108;DHT22;10712;52.944;9.098;2023-04-19T11:16:08;13.90;46.90
21108;DHT22;10712;52.944;9.098;2023-04-19T11:18:34;14.00;46.40
21108;DHT22;10712;52.944;9.098;2023-04-19T11:21:00;14.00;48.30
21108;DHT22;10712;52.944;9.098;2023-04-19T11:23:26;14.00;46.30
21108;DHT22;10712;52.944;9.098;2023-04-19T11:25:52;14.00;43.80
21108;DHT22;10712;52.944;9.098;2023-04-19T11:28:18;13.90;46.50
21108;DHT22;10712;52.944;9.098;2023-04-19T11:30:46;13.90;44.50
21108;DHT22;10712;52.944;9.098;2023-04-19T11:33:12;13.80;43.60
21108;DHT22;10712;52.944;9.098;2023-04-19T11:35:38;13.80;43.40
21108;DHT22;10712;52.944;9.098;2023-04-19T11:38:06;13.70;44.50
21108;DHT22;10712;52.944;9.098;2023-04-19T11:40:32;13.80;44.20
21108;DHT22;10712;52.944;9.098;2023-04-19T11:42:59;13.80;45.40
21108;DHT22;10712;52.944;9.098;2023-04-19T11:45:44;13.80;45.60
21108;DHT22;10712;52.944;9.098;2023-04-19T11:48:13;13.90;46.20
21108;DHT22;10712;52.944;9.098;2023-04-19T11:50:44;13.90;46.90
21108;DHT22;10712;52.944;9.098;2023-04-19T11:53:17;14.00;45.80
21108;DHT22;10712;52.944;9.098;2023-04-19T11:58:26;14.10;43.50
21108;DHT22;10712;52.944;9.098;2023-04-19T12:00:55;14.10;44.60
21108;DHT22;10712;52.944;9.098;2023-04-19T12:03:25;14.00;43.80
21108;DHT22;10712;52.944;9.098;2023-04-19T12:05:52;14.00;44.50
21108;DHT22;10712;52.944;9.098;2023-04-19T12:08:29;13.90;43.90
21108;DHT22;10712;52.944;9.098;2023-04-19T12:10:57;13.90;43.70
21108;DHT22;10712;52.944;9.098;2023-04-19T12:13:26;13.90;42.60
21108;DHT22;10712;52.944;9.098;2023-04-19T12:15:52;14.00;44.90
21108;DHT22;10712;52.944;9.098;2023-04-19T12:18:18;14.00;43.50
21108;DHT22;10712;52.944;9.098;2023-04-19T12:20:45;14.00;44.40
21108;DHT22;10712;52.944;9.098;2023-04-19T12:23:13;14.10;45.80
21108;DHT22;10712;52.944;9.098;2023-04-19T12:25:41;14.10;42.90
21108;DHT22;10712;52.944;9.098;2023-04-19T12:28:09;14.00;41.40
21108;DHT22;10712;52.944;9.098;2023-04-19T12:30:35;13.90;43.70
21108;DHT22;10712;52.944;9.098;2023-04-19T12:33:01;13.80;45.60
21108;DHT22;10712;52.944;9.098;2023-04-19T12:35:28;13.90;43.70
21108;DHT22;10712;52.944;9.098;2023-04-19T12:37:55;13.90;41.80
21108;DHT22;10712;52.944;9.098;2023-04-19T12:40:23;13.90;42.70
21108;DHT22;10712;52.944;9.098;2023-04-19T12:42:50;13.90;42.40
21108;DHT22;10712;52.944;9.098;2023-04-19T12:45:17;13.90;43.70
21108;DHT22;10712;52.944;9.098;2023-04-19T12:47:44;14.00;44.30
21108;DHT22;10712;52.944;9.098;2023-04-19T12:50:13;14.00;43.90
21108;DHT22;10712;52.944;9.098;2023-04-19T12:52:41;14.10;44.40
21108;DHT22;10712;52.944;9.098;2023-04-19T12:55:08;14.10;44.30
21108;DHT22;10712;52.944;9.098;2023-04-19T12:57:33;14.20;43.70
21108;DHT22;10712;52.944;9.098;2023-04-19T12:59:59;14.20;42.30
21108;DHT22;10712;52.944;9.098;2023-04-19T13:02:25;14.10;41.90
21108;DHT22;10712;52.944;9.098;2023-04-19T13:04:51;14.10;43.80
21108;DHT22;10712;52.944;9.098;2023-04-19T13:07:17;14.10;42.70
21108;DHT22;10712;52.944;9.098;2023-04-19T13:09:42;14.10;41.70
21108;DHT22;10712;52.944;9.098;2023-04-19T13:12:08;14.10;43.50
21108;DHT22;10712;52.944;9.098;2023-04-19T13:14:34;14.10;45.20
21108;DHT22;10712;52.944;9.098;2023-04-19T13:17:00;14.20;42.40
21108;DHT22;10712;52.944;9.098;2023-04-19T13:19:26;14.10;42.40
21108;DHT22;10712;52.944;9.098;2023-04-19T13:21:52;14.10;43.00
21108;DHT22;10712;52.944;9.098;2023-04-19T13:24:17;14.10;43.40
21108;DHT22;10712;52.944;9.098;2023-04-19T13:26:43;14.10;42.00
21108;DHT22;10712;52.944;9.098;2023-04-19T13:29:12;14.10;42.20
21108;DHT22;10712;52.944;9.098;2023-04-19T13:31:38;14.00;42.70
21108;DHT22;10712;52.944;9.098;2023-04-19T13:34:04;14.00;42.20
21108;DHT22;10712;52.944;9.098;2023-04-19T13:36:30;14.00;42.00
21108;DHT22;10712;52.944;9.098;2023-04-19T13:38:55;13.90;42.80
21108;DHT22;10712;52.944;9.098;2023-04-19T13:41:21;13.90;43.30
21108;DHT22;10712;52.944;9.098;2023-04-19T13:43:47;13.90;42.90
21108;DHT22;10712;52.944;9.098;2023-04-19T13:46:13;13.90;42.50
21108;DHT22;10712;52.944;9.098;2023-04-19T13:48:39;13.80;43.10
21108;DHT22;10712;52.944;9.098;2023-04-19T13:51:05;13.80;43.30
21108;DHT22;10712;52.944;9.098;2023-04-19T13:53:31;13.80;42.60
21108;DHT22;10712;52.944;9.098;2023-04-19T13:55:57;13.80;43.90
21108;DHT22;10712;52.944;9.098;2023-04-19T13:58:23;13.80;42.50
21108;DHT22;10712;52.944;9.098;2023-04-19T14:00:50;13.80;41.90
21108;DHT22;10712;52.944;9.098;2023-04-19T14:03:16;13.80;43.40
21108;DHT22;10712;52.944;9.098;2023-04-19T14:05:42;13.80;43.90
21108;DHT22;10712;52.944;9.098;2023-04-19T14:08:08;13.80;43.40
21108;DHT22;10712;52.944;9.098;2023-04-19T14:10:34;13.80;43.40
21108;DHT22;10712;52.944;9.098;2023-04-19T14:13:01;13.70;43.00
21108;DHT22;10712;52.944;9.098;2023-04-19T14:15:27;13.70;42.30
21108;DHT22;10712;52.944;9.098;2023-04-19T14:17:53;13.70;42.90
21108;DHT22;10712;52.944;9.098;2023-04-19T14:20:19;13.70;42.00
21108;DHT22;10712;52.944;9.098;2023-04-19T14:22:45;13.70;43.10
21108;DHT22;10712;52.944;9.098;2023-04-19T14:25:12;13.70;42.90
21108;DHT22;10712;52.944;9.098;2023-04-19T14:27:40;13.70;44.20
21108;DHT22;10712;52.944;9.098;2023-04-19T14:30:06;13.70;41.10
21108;DHT22;10712;52.944;9.098;2023-04-19T14:32:36;13.60;42.30
21108;DHT22;10712;52.944;9.098;2023-04-19T14:35:04;13.60;44.00
21108;DHT22;10712;52.944;9.098;2023-04-19T14:37:30;13.60;43.20
21108;DHT22;10712;52.944;9.098;2023-04-19T14:39:56;13.60;43.00
21108;DHT22;10712;52.944;9.098;2023-04-19T14:42:21;13.60;43.80
21108;DHT22;10712;52.944;9.098;2023-04-19T14:44:49;13.60;43.30
21108;DHT22;10712;52.944;9.098;2023-04-19T14:47:16;13.50;43.00
21108;DHT22;10712;52.944;9.098;2023-04-19T14:49:42;13.50;43.40
21108;DHT22;10712;52.944;9.098;2023-04-19T14:52:07;13.50;43.70
21108;DHT22;10712;52.944;9.098;2023-04-19T14:54:33;13.50;42.50
21108;DHT22;10712;52.944;9.098;2023-04-19T14:56:59;13.40;43.20
21108;DHT22;10712;52.944;9.098;2023-04-19T14:59:25;13.40;41.80
21108;DHT22;10712;52.944;9.098;2023-04-19T15:01:51;13.40;41.10
21108;DHT22;10712;52.944;9.098;2023-04-19T15:04:17;13.30;41.30
21108;DHT22;10712;52.944;9.098;2023-04-19T15:06:43;13.20;41.50
21108;DHT22;10712;52.944;9.098;2023-04-19T15:09:09;13.20;41.60
21108;DHT22;10712;52.944;9.098;2023-04-19T15:11:35;13.10;41.40
21108;DHT22;10712;52.944;9.098;2023-04-19T15:14:01;13.10;42.40
21108;DHT22;10712;52.944;9.098;2023-04-19T15:16:27;13.00;42.60
21108;DHT22;10712;52.944;9.098;2023-04-19T15:18:53;13.00;43.10
21108;DHT22;10712;52.944;9.098;2023-04-19T15:21:20;13.00;43.80
21108;DHT22;10712;52.944;9.098;2023-04-19T15:23:47;13.00;41.70
21108;DHT22;10712;52.944;9.098;2023-04-19T15:26:13;12.90;42.20
21108;DHT22;10712;52.944;9.098;2023-04-19T15:28:40;12.90;41.00
21108;DHT22;10712;52.944;9.098;2023-04-19T15:31:07;12.90;42.10
21108;DHT22;10712;52.944;9.098;2023-04-19T15:33:34;12.80;42.30
21108;DHT22;10712;52.944;9.098;2023-04-19T15:36:01;12.80;43.30
21108;DHT22;10712;52.944;9.098;2023-04-19T15:38:29;12.80;42.60
21108;DHT22;10712;52.944;9.098;2023-04-19T15:40:57;12.80;42.50
21108;DHT22;10712;52.944;9.098;2023-04-19T15:43:24;12.80;42.50
21108;DHT22;10712;52.944;9.098;2023-04-19T15:45:50;12.80;43.90
21108;DHT22;10712;52.944;9.098;2023-04-19T15:48:16;12.80;43.40
21108;DHT22;10712;52.944;9.098;2023-04-19T15:50:43;12.70;43.10
21108;DHT22;10712;52.944;9.098;2023-04-19T15:53:09;12.70;42.60
21108;DHT22;10712;52.944;9.098;2023-04-19T15:55:35;12.70;42.60